createdAt,value
2023-02-24T00:00:48.308Z,0.00
2023-02-24T00:01:48.308Z,0.00
2023-02-24T00:02:48.450Z,0.00
2023-02-24T00:03:48.363Z,0.00
2023-02-24T00:04:48.251Z,0.00
2023-02-24T00:05:48.237Z,0.00
2023-02-24T00:06:48.270Z,0.00
2023-02-24T00:07:48.213Z,0.00
2023-02-24T00:08:48.196Z,0.00
2023-02-24T00:09:48.182Z,0.00
2023-02-24T00:10:48.167Z,0.00
2023-02-24T00:11:48.169Z,0.00
2023-02-24T00:12:48.184Z,0.00
2023-02-24T00:13:48.129Z,0.00
2023-02-24T00:14:48.110Z,0.00
2023-02-24T00:15:48.298Z,0.00
2023-02-24T00:16:48.320Z,0.00
2023-02-24T00:17:48.070Z,0.00
2023-02-24T00:18:48.058Z,0.00
2023-02-24T00:19:48.045Z,0.00
2023-02-24T00:20:48.034Z,0.00
2023-02-24T00:21:48.018Z,0.00
2023-02-24T00:22:47.999Z,0.00
2023-02-24T00:23:47.989Z,0.00
2023-02-24T00:24:48.018Z,0.00
2023-02-24T00:25:47.964Z,0.00
2023-02-24T00:26:47.946Z,0.00
2023-02-24T00:27:47.938Z,0.00
2023-02-24T00:28:47.944Z,0.00
2023-02-24T00:29:47.909Z,0.00
2023-02-24T00:30:47.939Z,0.00
2023-02-24T00:31:48.101Z,0.00
2023-02-24T00:32:48.098Z,0.00
2023-02-24T00:33:47.855Z,0.00
2023-02-24T00:34:47.848Z,0.00
2023-02-24T00:35:47.838Z,0.00
2023-02-24T00:36:47.827Z,0.00
2023-02-24T00:37:47.809Z,0.00
2023-02-24T00:38:47.797Z,0.00
2023-02-24T00:39:47.784Z,0.00
2023-02-24T00:40:47.765Z,0.00
2023-02-24T00:41:47.757Z,0.00
2023-02-24T00:42:47.937Z,0.00
2023-02-24T00:43:47.725Z,0.00
2023-02-24T00:44:47.744Z,0.00
2023-02-24T00:45:47.704Z,0.00
2023-02-24T00:46:47.690Z,0.00
2023-02-24T00:47:47.684Z,0.00
2023-02-24T00:48:47.659Z,0.00
2023-02-24T00:49:47.650Z,0.00
2023-02-24T00:50:47.631Z,0.00
2023-02-24T00:51:47.617Z,0.00
2023-02-24T00:52:47.605Z,0.00
2023-02-24T00:53:47.597Z,0.00
2023-02-24T00:54:47.607Z,0.00
2023-02-24T00:55:47.568Z,0.00
2023-02-24T00:56:47.559Z,0.00
2023-02-24T00:57:47.559Z,0.00
2023-02-24T00:58:47.529Z,0.00
2023-02-24T00:59:47.759Z,0.00
2023-02-24T01:00:47.524Z,0.00
2023-02-24T01:01:47.534Z,0.00
2023-02-24T01:02:47.474Z,0.00
2023-02-24T01:03:47.488Z,0.00
2023-02-24T01:04:47.451Z,0.00
2023-02-24T01:05:47.438Z,0.00
2023-02-24T01:06:47.415Z,0.00
2023-02-24T01:07:47.401Z,0.00
2023-02-24T01:08:47.393Z,0.00
2023-02-24T01:09:47.377Z,0.00
2023-02-24T01:10:47.362Z,0.00
2023-02-24T01:11:47.399Z,0.00
2023-02-24T01:12:47.335Z,0.00
2023-02-24T01:13:47.324Z,0.00
2023-02-24T01:14:47.300Z,0.00
2023-02-24T01:15:47.310Z,0.00
2023-02-24T01:16:47.297Z,0.00
2023-02-24T01:17:47.263Z,0.00
2023-02-24T01:18:47.254Z,0.00
2023-02-24T01:19:47.241Z,0.00
2023-02-24T01:20:47.227Z,0.00
2023-02-24T01:21:47.212Z,0.00
2023-02-24T01:22:47.193Z,0.00
2023-02-24T01:23:47.182Z,0.00
2023-02-24T01:24:47.203Z,0.00
2023-02-24T01:25:47.170Z,0.00
2023-02-24T01:26:47.145Z,0.00
2023-02-24T01:27:47.132Z,0.00
2023-02-24T01:28:47.122Z,0.00
2023-02-24T01:29:47.119Z,0.00
2023-02-24T01:30:47.095Z,0.00
2023-02-24T01:31:49.534Z,0.00
2023-02-24T01:32:47.735Z,0.00
2023-02-24T01:33:47.044Z,0.00
2023-02-24T01:34:47.039Z,0.00
2023-02-24T01:35:47.020Z,0.00
2023-02-24T01:36:47.022Z,0.00
2023-02-24T01:37:47.019Z,0.00
2023-02-24T01:38:46.981Z,0.00
2023-02-24T01:39:47.029Z,0.00
2023-02-24T01:40:46.959Z,0.00
2023-02-24T01:41:46.947Z,0.00
2023-02-24T01:42:46.924Z,0.00
2023-02-24T01:43:46.915Z,0.00
2023-02-24T01:44:46.991Z,0.00
2023-02-24T01:45:46.885Z,0.00
2023-02-24T01:46:46.955Z,0.00
2023-02-24T01:47:46.862Z,0.00
2023-02-24T01:48:46.876Z,0.00
2023-02-24T01:49:46.855Z,0.00
2023-02-24T01:50:46.820Z,0.00
2023-02-24T01:51:46.810Z,0.00
2023-02-24T01:52:46.831Z,0.00
2023-02-24T01:53:46.777Z,0.00
2023-02-24T01:54:46.769Z,0.00
2023-02-24T01:55:46.762Z,0.00
2023-02-24T01:56:46.846Z,0.00
2023-02-24T01:57:46.724Z,0.00
2023-02-24T01:58:46.711Z,0.00
2023-02-24T01:59:46.696Z,0.00
2023-02-24T02:00:46.886Z,0.00
2023-02-24T02:01:47.052Z,0.00
2023-02-24T02:02:47.177Z,0.00
2023-02-24T02:03:46.951Z,0.00
2023-02-24T02:04:46.657Z,0.00
2023-02-24T02:05:46.622Z,0.00
2023-02-24T02:06:46.622Z,0.00
2023-02-24T02:07:46.608Z,0.00
2023-02-24T02:08:46.574Z,0.00
2023-02-24T02:09:46.564Z,0.00
2023-02-24T02:10:46.554Z,0.00
2023-02-24T02:11:46.544Z,0.00
2023-02-24T02:12:46.539Z,0.00
2023-02-24T02:13:46.585Z,0.00
2023-02-24T02:14:46.496Z,0.00
2023-02-24T02:15:46.493Z,0.00
2023-02-24T02:16:46.471Z,0.00
2023-02-24T02:17:46.461Z,0.00
2023-02-24T02:18:46.454Z,0.00
2023-02-24T02:19:46.431Z,0.00
2023-02-24T02:20:46.438Z,0.00
2023-02-24T02:21:46.405Z,0.00
2023-02-24T02:22:46.384Z,0.00
2023-02-24T02:23:46.371Z,0.00
2023-02-24T02:24:46.356Z,0.00
2023-02-24T02:25:46.371Z,0.00
2023-02-24T02:26:46.347Z,0.00
2023-02-24T02:27:46.424Z,0.00
2023-02-24T02:28:46.320Z,0.00
2023-02-24T02:29:46.310Z,0.00
2023-02-24T02:30:46.423Z,0.00
2023-02-24T02:31:46.384Z,0.00
2023-02-24T02:32:46.434Z,0.00
2023-02-24T02:33:46.244Z,0.00
2023-02-24T02:34:46.222Z,0.00
2023-02-24T02:35:46.212Z,0.00
2023-02-24T02:36:46.217Z,0.00
2023-02-24T02:37:46.198Z,0.00
2023-02-24T02:38:46.178Z,0.00
2023-02-24T02:39:46.165Z,0.00
2023-02-24T02:40:46.147Z,0.00
2023-02-24T02:41:46.138Z,0.00
2023-02-24T02:42:46.114Z,0.00
2023-02-24T02:43:46.109Z,0.00
2023-02-24T02:44:46.088Z,0.00
2023-02-24T02:45:46.163Z,0.00
2023-02-24T02:46:46.075Z,0.00
2023-02-24T02:47:46.050Z,0.00
2023-02-24T02:48:46.029Z,0.00
2023-02-24T02:49:46.015Z,0.00
2023-02-24T02:50:46.090Z,0.00
2023-02-24T02:51:45.996Z,0.00
2023-02-24T02:52:46.008Z,0.00
2023-02-24T02:53:45.963Z,0.00
2023-02-24T02:54:45.952Z,0.00
2023-02-24T02:55:45.951Z,0.00
2023-02-24T02:56:45.920Z,0.00
2023-02-24T02:57:45.916Z,0.00
2023-02-24T02:58:45.900Z,0.00
2023-02-24T02:59:45.881Z,0.00
2023-02-24T03:00:45.900Z,0.00
2023-02-24T03:01:45.851Z,0.00
2023-02-24T03:02:46.089Z,0.00
2023-02-24T03:03:45.836Z,0.00
2023-02-24T03:04:45.836Z,0.00
2023-02-24T03:05:45.797Z,0.00
2023-02-24T03:06:45.788Z,0.00
2023-02-24T03:07:45.772Z,0.00
2023-02-24T03:08:45.784Z,0.00
2023-02-24T03:09:45.758Z,0.00
2023-02-24T03:10:46.080Z,0.00
2023-02-24T03:11:45.721Z,0.00
2023-02-24T03:12:45.710Z,0.00
2023-02-24T03:13:45.693Z,0.00
2023-02-24T03:14:45.682Z,0.00
2023-02-24T03:15:45.664Z,0.00
2023-02-24T03:16:45.666Z,0.00
2023-02-24T03:17:45.637Z,0.00
2023-02-24T03:18:45.640Z,0.00
2023-02-24T03:19:45.608Z,0.00
2023-02-24T03:20:45.596Z,0.00
2023-02-24T03:21:45.737Z,0.00
2023-02-24T03:22:45.863Z,0.00
2023-02-24T03:23:45.555Z,0.00
2023-02-24T03:24:45.558Z,0.00
2023-02-24T03:25:45.534Z,0.00
2023-02-24T03:26:45.523Z,0.00
2023-02-24T03:27:45.519Z,0.00
2023-02-24T03:28:45.490Z,0.00
2023-02-24T03:29:45.469Z,0.00
2023-02-24T03:30:45.494Z,0.00
2023-02-24T03:31:45.536Z,0.00
2023-02-24T03:32:45.583Z,0.00
2023-02-24T03:33:45.415Z,0.00
2023-02-24T03:34:45.404Z,0.00
2023-02-24T03:35:45.392Z,0.00
2023-02-24T03:36:45.376Z,0.00
2023-02-24T03:37:45.370Z,0.00
2023-02-24T03:38:45.347Z,0.00
2023-02-24T03:39:45.335Z,0.00
2023-02-24T03:40:45.356Z,0.00
2023-02-24T03:41:45.308Z,0.00
2023-02-24T03:42:45.296Z,0.00
2023-02-24T03:43:45.310Z,0.00
2023-02-24T03:44:45.272Z,0.00
2023-02-24T03:45:45.286Z,0.00
2023-02-24T03:46:45.246Z,0.00
2023-02-24T03:47:45.230Z,0.00
2023-02-24T03:48:45.216Z,0.00
2023-02-24T03:49:45.212Z,0.00
2023-02-24T03:50:45.195Z,0.00
2023-02-24T03:51:45.175Z,0.00
2023-02-24T03:52:45.160Z,0.00
2023-02-24T03:53:45.150Z,0.00
2023-02-24T03:54:45.139Z,0.00
2023-02-24T03:55:45.122Z,0.00
2023-02-24T03:56:45.134Z,0.00
2023-02-24T03:57:45.093Z,0.00
2023-02-24T03:58:45.074Z,0.00
2023-02-24T03:59:45.061Z,0.00
2023-02-24T04:00:45.049Z,0.00
2023-02-24T04:01:45.031Z,0.00
2023-02-24T04:02:45.253Z,0.00
2023-02-24T04:03:45.021Z,0.00
2023-02-24T04:04:45.103Z,0.00
2023-02-24T04:05:44.988Z,0.00
2023-02-24T04:06:44.977Z,0.00
2023-02-24T04:07:44.963Z,0.00
2023-02-24T04:08:44.948Z,0.00
2023-02-24T04:09:44.937Z,0.00
2023-02-24T04:10:44.915Z,0.00
2023-02-24T04:11:44.903Z,0.00
2023-02-24T04:12:44.945Z,0.00
2023-02-24T04:13:44.891Z,0.00
2023-02-24T04:14:44.855Z,0.00
2023-02-24T04:15:44.870Z,0.00
2023-02-24T04:16:44.834Z,0.00
2023-02-24T04:17:44.822Z,0.00
2023-02-24T04:18:44.807Z,0.00
2023-02-24T04:19:44.796Z,0.00
2023-02-24T04:20:44.777Z,0.00
2023-02-24T04:21:44.777Z,0.00
2023-02-24T04:22:44.748Z,0.00
2023-02-24T04:23:44.745Z,0.00
2023-02-24T04:24:44.723Z,0.00
2023-02-24T04:25:44.720Z,0.00
2023-02-24T04:26:44.700Z,0.00
2023-02-24T04:27:44.704Z,0.00
2023-02-24T04:28:44.693Z,0.00
2023-02-24T04:29:44.666Z,0.00
2023-02-24T04:30:44.780Z,0.00
2023-02-24T04:31:44.835Z,0.00
2023-02-24T04:32:44.638Z,0.00
2023-02-24T04:33:44.608Z,0.00
2023-02-24T04:34:44.591Z,0.00
2023-02-24T04:35:44.577Z,0.00
2023-02-24T04:36:44.571Z,0.00
2023-02-24T04:37:44.574Z,0.00
2023-02-24T04:38:44.542Z,0.00
2023-02-24T04:39:44.522Z,0.00
2023-02-24T04:40:44.521Z,0.00
2023-02-24T04:41:44.499Z,0.00
2023-02-24T04:42:44.480Z,0.00
2023-02-24T04:43:44.466Z,0.00
2023-02-24T04:44:44.473Z,0.00
2023-02-24T04:45:44.456Z,0.00
2023-02-24T04:46:44.564Z,0.00
2023-02-24T04:47:44.421Z,0.00
2023-02-24T04:48:44.400Z,0.00
2023-02-24T04:49:44.388Z,0.00
2023-02-24T04:50:44.376Z,0.00
2023-02-24T04:51:44.361Z,0.00
2023-02-24T04:52:44.351Z,0.00
2023-02-24T04:53:44.341Z,0.00
2023-02-24T04:54:44.329Z,0.00
2023-02-24T04:55:44.308Z,0.00
2023-02-24T04:56:44.299Z,0.00
2023-02-24T04:57:44.281Z,0.00
2023-02-24T04:58:44.268Z,0.00
2023-02-24T04:59:44.254Z,0.00
2023-02-24T05:00:44.256Z,0.00
2023-02-24T05:01:44.236Z,0.00
2023-02-24T05:02:44.208Z,0.00
2023-02-24T05:03:44.250Z,0.00
2023-02-24T05:04:44.284Z,0.00
2023-02-24T05:05:44.170Z,0.00
2023-02-24T05:06:44.270Z,0.00
2023-02-24T05:07:44.154Z,0.00
2023-02-24T05:08:44.131Z,0.00
2023-02-24T05:09:44.124Z,0.00
2023-02-24T05:10:44.105Z,0.00
2023-02-24T05:11:44.097Z,0.00
2023-02-24T05:12:44.082Z,0.00
2023-02-24T05:13:44.060Z,0.00
2023-02-24T05:14:44.052Z,0.00
2023-02-24T05:15:44.040Z,0.00
2023-02-24T05:16:44.092Z,0.00
2023-02-24T05:17:44.012Z,0.00
2023-02-24T05:18:43.992Z,0.00
2023-02-24T05:19:43.983Z,0.00
2023-02-24T05:20:43.970Z,0.00
2023-02-24T05:21:43.956Z,0.00
2023-02-24T05:22:43.940Z,0.00
2023-02-24T05:23:43.934Z,0.00
2023-02-24T05:24:43.917Z,0.00
2023-02-24T05:25:43.913Z,0.00
2023-02-24T05:26:43.885Z,0.00
2023-02-24T05:27:43.873Z,0.00
2023-02-24T05:28:43.859Z,0.00
2023-02-24T05:29:43.850Z,0.00
2023-02-24T05:30:43.890Z,0.00
2023-02-24T05:31:43.972Z,0.00
2023-02-24T05:32:43.886Z,0.00
2023-02-24T05:33:43.811Z,0.00
2023-02-24T05:34:43.782Z,0.00
2023-02-24T05:35:43.775Z,0.00
2023-02-24T05:36:43.755Z,0.00
2023-02-24T05:37:43.741Z,0.00
2023-02-24T05:38:43.726Z,0.00
2023-02-24T05:39:43.708Z,0.00
2023-02-24T05:40:43.696Z,0.00
2023-02-24T05:41:43.685Z,0.00
2023-02-24T05:42:43.681Z,0.00
2023-02-24T05:43:43.653Z,0.00
2023-02-24T05:44:43.637Z,0.00
2023-02-24T05:45:43.623Z,0.00
2023-02-24T05:46:43.671Z,0.00
2023-02-24T05:47:43.604Z,0.00
2023-02-24T05:48:43.621Z,0.00
2023-02-24T05:49:43.575Z,0.00
2023-02-24T05:50:43.559Z,0.00
2023-02-24T05:51:43.636Z,0.00
2023-02-24T05:52:43.530Z,4.00
2023-02-24T05:53:43.518Z,0.00
2023-02-24T05:54:43.500Z,4.00
2023-02-24T05:55:43.496Z,4.00
2023-02-24T05:56:43.474Z,4.00
2023-02-24T05:57:43.466Z,4.00
2023-02-24T05:58:43.451Z,8.00
2023-02-24T05:59:43.450Z,8.00
2023-02-24T06:00:43.426Z,8.00
2023-02-24T06:01:43.447Z,4.00
2023-02-24T06:02:43.439Z,8.00
2023-02-24T06:03:43.376Z,8.00
2023-02-24T06:04:43.385Z,12.00
2023-02-24T06:05:43.364Z,12.00
2023-02-24T06:06:43.334Z,16.00
2023-02-24T06:07:43.327Z,24.00
2023-02-24T06:08:43.309Z,24.00
2023-02-24T06:09:43.297Z,28.00
2023-02-24T06:10:43.288Z,32.00
2023-02-24T06:11:43.353Z,36.00
2023-02-24T06:12:43.261Z,36.00
2023-02-24T06:13:43.250Z,44.00
2023-02-24T06:14:43.341Z,48.00
2023-02-24T06:15:43.467Z,52.00
2023-02-24T06:16:43.336Z,56.00
2023-02-24T06:17:43.192Z,60.00
2023-02-24T06:18:43.182Z,68.00
2023-02-24T06:19:43.185Z,76.00
2023-02-24T06:20:43.174Z,84.00
2023-02-24T06:21:43.142Z,92.00
2023-02-24T06:22:43.122Z,92.00
2023-02-24T06:23:43.119Z,92.00
2023-02-24T06:24:43.095Z,108.00
2023-02-24T06:25:43.082Z,132.00
2023-02-24T06:26:43.069Z,148.00
2023-02-24T06:27:43.093Z,160.00
2023-02-24T06:28:43.042Z,176.00
2023-02-24T06:29:43.031Z,204.00
2023-02-24T06:30:43.097Z,228.00
2023-02-24T06:31:43.189Z,236.00
2023-02-24T06:32:43.255Z,252.00
2023-02-24T06:33:43.021Z,280.00
2023-02-24T06:34:42.969Z,320.00
2023-02-24T06:35:42.957Z,352.00
2023-02-24T06:36:42.963Z,376.00
2023-02-24T06:37:42.930Z,408.00
2023-02-24T06:38:42.913Z,440.00
2023-02-24T06:39:42.897Z,476.00
2023-02-24T06:40:42.903Z,520.00
2023-02-24T06:41:42.869Z,556.00
2023-02-24T06:42:42.853Z,580.00
2023-02-24T06:43:42.840Z,584.00
2023-02-24T06:44:42.868Z,572.00
2023-02-24T06:45:42.828Z,560.00
2023-02-24T06:46:42.809Z,548.00
2023-02-24T06:47:42.810Z,556.00
2023-02-24T06:48:42.777Z,544.00
2023-02-24T06:49:43.083Z,540.00
2023-02-24T06:50:42.749Z,548.00
2023-02-24T06:51:42.736Z,552.00
2023-02-24T06:52:42.745Z,572.00
2023-02-24T06:53:42.714Z,596.00
2023-02-24T06:54:42.709Z,636.00
2023-02-24T06:55:42.687Z,676.00
2023-02-24T06:56:42.674Z,736.00
2023-02-24T06:57:42.657Z,756.00
2023-02-24T06:58:42.637Z,784.00
2023-02-24T06:59:42.623Z,824.00
2023-02-24T07:00:42.610Z,884.00
2023-02-24T07:01:42.600Z,956.00
2023-02-24T07:02:42.592Z,1024.00
2023-02-24T07:03:42.576Z,1072.00
2023-02-24T07:04:42.565Z,1112.00
2023-02-24T07:05:42.547Z,1172.00
2023-02-24T07:06:42.534Z,1224.00
2023-02-24T07:07:42.516Z,1216.00
2023-02-24T07:08:42.527Z,1148.00
2023-02-24T07:09:42.760Z,1148.00
2023-02-24T07:10:42.474Z,1216.00
2023-02-24T07:11:43.302Z,1432.00
2023-02-24T07:12:42.451Z,1528.00
2023-02-24T07:13:42.434Z,1468.00
2023-02-24T07:14:42.423Z,1396.00
2023-02-24T07:15:42.407Z,1428.00
2023-02-24T07:16:42.413Z,1392.00
2023-02-24T07:17:42.378Z,1368.00
2023-02-24T07:18:42.373Z,1304.00
2023-02-24T07:19:42.353Z,1236.00
2023-02-24T07:20:42.338Z,1148.00
2023-02-24T07:21:42.329Z,1124.00
2023-02-24T07:22:42.308Z,1100.00
2023-02-24T07:23:42.302Z,1124.00
2023-02-24T07:24:42.308Z,1176.00
2023-02-24T07:25:42.267Z,1308.00
2023-02-24T07:26:42.345Z,1408.00
2023-02-24T07:27:42.241Z,1448.00
2023-02-24T07:28:42.231Z,1444.00
2023-02-24T07:29:42.420Z,1452.00
2023-02-24T07:30:42.343Z,1456.00
2023-02-24T07:31:42.443Z,1468.00
2023-02-24T07:32:42.227Z,1536.00
2023-02-24T07:33:42.164Z,1624.00
2023-02-24T07:34:42.157Z,1692.00
2023-02-24T07:35:42.132Z,1676.00
2023-02-24T07:36:42.119Z,1600.00
2023-02-24T07:37:42.112Z,1576.00
2023-02-24T07:38:42.095Z,1656.00
2023-02-24T07:39:42.078Z,1656.00
2023-02-24T07:40:42.086Z,1672.00
2023-02-24T07:41:42.049Z,1768.00
2023-02-24T07:42:42.039Z,1932.00
2023-02-24T07:43:42.028Z,2064.00
2023-02-24T07:44:42.010Z,2152.00
2023-02-24T07:45:42.070Z,2156.00
2023-02-24T07:46:41.978Z,2156.00
2023-02-24T07:47:41.964Z,2128.00
2023-02-24T07:48:41.954Z,2080.00
2023-02-24T07:49:42.138Z,2192.00
2023-02-24T07:50:41.928Z,2384.00
2023-02-24T07:51:41.910Z,2384.00
2023-02-24T07:52:41.894Z,2348.00
2023-02-24T07:53:41.890Z,2452.00
2023-02-24T07:54:41.928Z,2456.00
2023-02-24T07:55:41.860Z,2564.00
2023-02-24T07:56:41.869Z,2800.00
2023-02-24T07:57:41.826Z,2784.00
2023-02-24T07:58:41.823Z,2792.00
2023-02-24T07:59:41.802Z,3020.00
2023-02-24T08:00:41.793Z,3436.00
2023-02-24T08:01:41.778Z,3364.00
2023-02-24T08:02:41.831Z,3320.00
2023-02-24T08:03:41.750Z,3212.00
2023-02-24T08:04:41.732Z,3116.00
2023-02-24T08:05:41.763Z,3196.00
2023-02-24T08:06:41.714Z,3336.00
2023-02-24T08:07:41.695Z,3428.00
2023-02-24T08:08:41.685Z,3608.00
2023-02-24T08:09:41.667Z,3732.00
2023-02-24T08:10:41.653Z,4080.00
2023-02-24T08:11:41.637Z,3892.00
2023-02-24T08:12:41.657Z,4104.00
2023-02-24T08:13:41.609Z,4176.00
2023-02-24T08:14:41.599Z,3900.00
2023-02-24T08:15:41.615Z,3796.00
2023-02-24T08:16:41.577Z,3564.00
2023-02-24T08:17:41.559Z,3136.00
2023-02-24T08:18:41.555Z,2928.00
2023-02-24T08:19:41.533Z,2780.00
2023-02-24T08:20:41.525Z,2796.00
2023-02-24T08:21:41.523Z,2828.00
2023-02-24T08:22:41.487Z,2940.00
2023-02-24T08:23:41.478Z,3104.00
2023-02-24T08:24:41.664Z,3444.00
2023-02-24T08:25:41.450Z,3888.00
2023-02-24T08:26:41.587Z,4516.00
2023-02-24T08:27:41.421Z,5068.00
2023-02-24T08:28:41.430Z,5560.00
2023-02-24T08:29:41.398Z,6092.00
2023-02-24T08:30:41.406Z,6628.00
2023-02-24T08:31:41.487Z,7132.00
2023-02-24T08:32:41.477Z,7264.00
2023-02-24T08:33:41.515Z,6772.00
2023-02-24T08:34:41.332Z,5736.00
2023-02-24T08:35:41.314Z,5060.00
2023-02-24T08:36:41.305Z,4508.00
2023-02-24T08:37:41.289Z,4196.00
2023-02-24T08:38:41.277Z,4184.00
2023-02-24T08:39:41.258Z,4072.00
2023-02-24T08:40:41.242Z,4304.00
2023-02-24T08:41:41.233Z,4584.00
2023-02-24T08:42:41.223Z,4668.00
2023-02-24T08:43:41.240Z,4748.00
2023-02-24T08:44:42.470Z,4580.00
2023-02-24T08:45:41.185Z,4452.00
2023-02-24T08:46:41.218Z,4128.00
2023-02-24T08:47:41.159Z,4228.00
2023-02-24T08:48:41.146Z,4500.00
2023-02-24T08:49:41.134Z,4756.00
2023-02-24T08:50:41.226Z,5260.00
2023-02-24T08:51:41.101Z,5528.00
2023-02-24T08:52:41.091Z,5296.00
2023-02-24T08:53:41.075Z,4764.00
2023-02-24T08:54:41.060Z,4192.00
2023-02-24T08:55:41.045Z,4312.00
2023-02-24T08:56:41.039Z,4388.00
2023-02-24T08:57:41.022Z,4412.00
2023-02-24T08:58:41.089Z,4564.00
2023-02-24T08:59:41.038Z,4692.00
2023-02-24T09:00:41.112Z,4848.00
2023-02-24T09:01:40.970Z,4916.00
2023-02-24T09:02:40.961Z,5244.00
2023-02-24T09:03:40.943Z,5368.00
2023-02-24T09:04:41.009Z,5552.00
2023-02-24T09:05:40.914Z,5480.00
2023-02-24T09:06:40.945Z,5628.00
2023-02-24T09:07:40.926Z,5364.00
2023-02-24T09:08:40.867Z,5508.00
2023-02-24T09:09:40.863Z,5944.00
2023-02-24T09:10:40.860Z,6320.00
2023-02-24T09:11:40.841Z,6720.00
2023-02-24T09:12:40.866Z,6948.00
2023-02-24T09:13:40.813Z,7228.00
2023-02-24T09:14:40.789Z,7604.00
2023-02-24T09:15:40.827Z,8392.00
2023-02-24T09:16:40.861Z,8848.00
2023-02-24T09:17:40.758Z,9428.00
2023-02-24T09:18:40.737Z,9212.00
2023-02-24T09:19:40.720Z,9712.00
2023-02-24T09:20:40.714Z,10112.00
2023-02-24T09:21:40.898Z,9564.00
2023-02-24T09:22:40.987Z,8724.00
2023-02-24T09:23:40.662Z,9308.00
2023-02-24T09:24:40.650Z,8160.00
2023-02-24T09:25:41.083Z,7100.00
2023-02-24T09:26:40.631Z,6348.00
2023-02-24T09:27:40.618Z,5984.00
2023-02-24T09:28:40.673Z,5692.00
2023-02-24T09:29:40.581Z,5352.00
2023-02-24T09:30:40.590Z,5356.00
2023-02-24T09:31:41.229Z,5700.00
2023-02-24T09:32:40.780Z,6052.00
2023-02-24T09:33:40.528Z,6044.00
2023-02-24T09:34:40.513Z,6056.00
2023-02-24T09:35:40.541Z,5896.00
2023-02-24T09:36:42.599Z,5916.00
2023-02-24T09:37:40.479Z,5644.00
2023-02-24T09:38:40.460Z,5036.00
2023-02-24T09:39:40.445Z,4768.00
2023-02-24T09:40:40.434Z,4848.00
2023-02-24T09:41:40.425Z,5104.00
2023-02-24T09:42:40.404Z,5092.00
2023-02-24T09:43:40.392Z,5288.00
2023-02-24T09:44:40.384Z,5864.00
2023-02-24T09:45:40.553Z,6104.00
2023-02-24T09:46:40.482Z,6336.00
2023-02-24T09:47:40.701Z,6700.00
2023-02-24T09:48:40.350Z,7180.00
2023-02-24T09:49:40.364Z,7188.00
2023-02-24T09:51:01.509Z,6720.00
2023-02-24T09:51:41.316Z,6472.00
2023-02-24T09:52:40.280Z,6028.00
2023-02-24T09:53:41.718Z,5900.00
2023-02-24T09:54:40.244Z,6020.00
2023-02-24T09:55:40.227Z,5924.00
2023-02-24T09:56:40.223Z,5996.00
2023-02-24T09:57:40.232Z,6064.00
2023-02-24T09:58:44.021Z,5940.00
2023-02-24T09:59:40.182Z,5760.00
2023-02-24T10:00:40.165Z,5504.00
2023-02-24T10:01:40.204Z,5720.00
2023-02-24T10:02:40.180Z,5832.00
2023-02-24T10:03:40.119Z,5920.00
2023-02-24T10:04:40.128Z,6036.00
2023-02-24T10:05:40.101Z,6152.00
2023-02-24T10:06:40.085Z,6308.00
2023-02-24T10:07:40.080Z,6812.00
2023-02-24T10:08:40.056Z,6900.00
2023-02-24T10:09:40.036Z,6660.00
2023-02-24T10:10:40.064Z,6484.00
2023-02-24T10:11:40.020Z,6488.00
2023-02-24T10:12:40.032Z,6456.00
2023-02-24T10:13:39.986Z,6340.00
2023-02-24T10:14:43.975Z,6324.00
2023-02-24T10:15:39.961Z,6316.00
2023-02-24T10:16:40.045Z,6664.00
2023-02-24T10:17:39.956Z,6544.00
2023-02-24T10:18:39.925Z,5912.00
2023-02-24T10:19:39.909Z,5692.00
2023-02-24T10:20:40.359Z,5468.00
2023-02-24T10:21:40.183Z,5072.00
2023-02-24T10:22:39.884Z,4912.00
2023-02-24T10:23:40.772Z,4900.00
2023-02-24T10:24:39.843Z,5068.00
2023-02-24T10:25:39.825Z,5252.00
2023-02-24T10:26:41.653Z,5356.00
2023-02-24T10:27:39.791Z,5608.00
2023-02-24T10:28:39.787Z,5812.00
2023-02-24T10:29:39.772Z,5804.00
2023-02-24T10:30:39.893Z,5660.00
2023-02-24T10:31:40.074Z,5492.00
2023-02-24T10:32:39.832Z,5184.00
2023-02-24T10:33:39.713Z,4756.00
2023-02-24T10:34:39.702Z,4444.00
2023-02-24T10:35:39.689Z,4320.00
2023-02-24T10:36:39.810Z,4144.00
2023-02-24T10:37:39.665Z,3952.00
2023-02-24T10:38:39.646Z,3836.00
2023-02-24T10:39:39.638Z,3800.00
2023-02-24T10:40:39.615Z,3752.00
2023-02-24T10:41:39.651Z,3772.00
2023-02-24T10:42:39.591Z,3796.00
2023-02-24T10:43:39.592Z,3608.00
2023-02-24T10:44:39.566Z,3416.00
2023-02-24T10:45:39.555Z,3316.00
2023-02-24T10:46:41.996Z,3296.00
2023-02-24T10:47:39.524Z,3192.00
2023-02-24T10:48:41.816Z,3132.00
2023-02-24T10:49:39.498Z,3320.00
2023-02-24T10:50:53.846Z,3488.00
2023-02-24T10:51:40.491Z,3460.00
2023-02-24T10:52:39.476Z,3368.00
2023-02-24T10:53:39.480Z,3388.00
2023-02-24T10:54:39.430Z,3472.00
2023-02-24T10:55:39.424Z,3676.00
2023-02-24T10:56:39.407Z,3808.00
2023-02-24T10:57:47.445Z,3908.00
2023-02-24T10:58:40.402Z,4016.00
2023-02-24T10:59:39.432Z,4232.00
2023-02-24T11:00:39.355Z,4512.00
2023-02-24T11:01:39.389Z,4724.00
2023-02-24T11:02:39.418Z,4760.00
2023-02-24T11:03:39.300Z,4828.00
2023-02-24T11:04:39.291Z,4724.00
2023-02-24T11:05:39.281Z,4512.00
2023-02-24T11:06:39.266Z,4412.00
2023-02-24T11:07:39.447Z,4340.00
2023-02-24T11:08:39.253Z,4380.00
2023-02-24T11:09:39.220Z,4500.00
2023-02-24T11:10:39.456Z,4760.00
2023-02-24T11:11:39.196Z,4936.00
2023-02-24T11:12:39.184Z,5200.00
2023-02-24T11:13:39.160Z,5448.00
2023-02-24T11:14:39.154Z,5620.00
2023-02-24T11:15:39.267Z,5688.00
2023-02-24T11:16:39.132Z,5736.00
2023-02-24T11:17:39.216Z,5812.00
2023-02-24T11:18:39.094Z,5732.00
2023-02-24T11:19:39.088Z,5852.00
2023-02-24T11:20:48.358Z,5852.00
2023-02-24T11:21:41.548Z,5728.00
2023-02-24T11:22:39.057Z,5692.00
2023-02-24T11:23:39.043Z,6092.00
2023-02-24T11:24:39.036Z,6900.00
2023-02-24T11:25:38.998Z,7516.00
2023-02-24T11:26:38.987Z,8016.00
2023-02-24T11:27:38.971Z,8520.00
2023-02-24T11:28:38.966Z,8580.00
2023-02-24T11:29:38.950Z,8512.00
2023-02-24T11:30:38.993Z,8520.00
2023-02-24T11:31:39.076Z,8612.00
2023-02-24T11:32:39.080Z,9528.00
2023-02-24T11:33:38.894Z,10808.00
2023-02-24T11:34:38.881Z,10812.00
2023-02-24T11:35:39.019Z,11444.00
2023-02-24T11:36:38.852Z,14368.00
2023-02-24T11:37:40.585Z,19296.00
2023-02-24T11:38:38.830Z,23712.00
2023-02-24T11:39:38.824Z,21920.00
2023-02-24T11:40:38.822Z,26016.00
2023-02-24T11:41:38.779Z,32928.00
2023-02-24T11:42:38.769Z,27520.00
2023-02-24T11:43:38.753Z,27904.00
2023-02-24T11:44:38.743Z,26752.00
2023-02-24T11:45:38.735Z,23904.00
2023-02-24T11:46:38.756Z,26656.00
2023-02-24T11:47:38.700Z,30336.00
2023-02-24T11:48:38.685Z,36608.00
2023-02-24T11:49:38.677Z,38208.00
2023-02-24T11:50:38.654Z,40128.00
2023-02-24T11:51:38.650Z,40320.00
2023-02-24T11:52:38.678Z,37472.00
2023-02-24T11:53:38.623Z,37888.00
2023-02-24T11:54:38.630Z,37856.00
2023-02-24T11:55:38.601Z,35680.00
2023-02-24T11:56:38.599Z,37536.00
2023-02-24T11:57:38.599Z,37152.00
2023-02-24T11:58:38.552Z,36800.00
2023-02-24T11:59:38.552Z,38624.00
2023-02-24T12:00:38.526Z,40256.00
2023-02-24T12:01:38.512Z,40288.00
2023-02-24T12:02:38.560Z,39296.00
2023-02-24T12:03:38.490Z,37728.00
2023-02-24T12:04:38.480Z,34784.00
2023-02-24T12:05:38.478Z,31648.00
2023-02-24T12:06:38.442Z,37824.00
2023-02-24T12:07:38.436Z,34400.00
2023-02-24T12:08:38.413Z,27424.00
2023-02-24T12:09:38.411Z,18272.00
2023-02-24T12:10:38.390Z,21472.00
2023-02-24T12:11:38.540Z,31616.00
2023-02-24T12:12:38.391Z,14928.00
2023-02-24T12:13:38.356Z,9560.00
2023-02-24T12:14:38.339Z,9856.00
2023-02-24T12:15:38.340Z,11732.00
2023-02-24T12:16:38.390Z,10096.00
2023-02-24T12:17:38.296Z,8376.00
2023-02-24T12:18:38.290Z,8392.00
2023-02-24T12:19:38.277Z,8924.00
2023-02-24T12:20:38.294Z,7888.00
2023-02-24T12:21:38.244Z,6640.00
2023-02-24T12:22:38.234Z,6204.00
2023-02-24T12:23:38.228Z,5116.00
2023-02-24T12:24:38.368Z,5088.00
2023-02-24T12:25:38.186Z,4492.00
2023-02-24T12:26:38.176Z,3704.00
2023-02-24T12:27:38.165Z,3016.00
2023-02-24T12:28:38.178Z,2472.00
2023-02-24T12:29:38.137Z,2064.00
2023-02-24T12:30:39.148Z,1788.00
2023-02-24T12:31:38.223Z,1584.00
2023-02-24T12:32:38.214Z,1672.00
2023-02-24T12:33:38.085Z,1580.00
2023-02-24T12:34:38.071Z,1812.00
2023-02-24T12:35:38.054Z,2360.00
2023-02-24T12:36:38.039Z,2136.00
2023-02-24T12:37:38.029Z,1748.00
2023-02-24T12:38:38.014Z,1600.00
2023-02-24T12:39:38.005Z,1768.00